Time;durP1;ratioP1;P1;durP2;ratioP2;P2;SDS_P1;SDS_P2;PMS_P1;PMS_P2;Temp;Humidity;BMP_temperature;BMP_pressure;BME280_temperature;BME280_humidity;BME280_pressure;Samples;Min_cycle;Max_cycle;Signal;HPM_P1;HPM_P2
2022/02/12 00:01:29;;;;;;;;;;;;;;;12.40;41.60;101628.78;4387822;32;19958;-71
2022/02/12 00:03:54;;;;;;;;;;;;;;;12.66;41.44;101610.13;4386405;32;19996;-71
2022/02/12 00:06:20;;;;;;;;;;;;;;;12.44;42.13;101606.91;4386776;32;20021;-71
2022/02/12 00:08:46;;;;;;;;;;;;;;;12.19;42.73;101603.72;4386397;32;20229;-71
2022/02/12 00:11:11;;;;;;;;;;;;;;;12.04;43.34;101603.16;4385649;32;19969;-71
2022/02/12 00:13:37;;;;;;;;;;;;;;;12.06;43.08;101597.88;4385249;32;19958;-71
2022/02/12 00:16:02;;;;;;;;;;;;;;;12.43;42.58;101582.75;4387778;32;19998;-71
2022/02/12 00:18:28;;;;;;;;;;;;;;;12.51;42.48;101577.75;4384329;32;20056;-71
2022/02/12 00:20:54;;;;;;;;;;;;;;;12.47;42.53;101575.00;4382751;32;20349;-71
2022/02/12 00:23:20;;;;;;;;;;;;;;;12.39;42.70;101576.34;4383755;32;19962;-71
2022/02/12 00:25:46;;;;;;;;;;;;;;;12.81;41.97;101567.06;4385321;32;20006;-71
2022/02/12 00:28:12;;;;;;;;;;;;;;;12.45;42.73;101573.84;4388082;32;20001;-71
2022/02/12 00:30:38;;;;;;;;;;;;;;;12.49;42.81;101566.09;4386076;32;20017;-71
2022/02/12 00:33:07;;;;;;;;;;;;;;;12.59;42.36;101571.53;4385753;32;20001;-71
2022/02/12 00:35:33;;;;;;;;;;;;;;;12.32;43.38;101561.56;4386169;32;20002;-71
2022/02/12 00:37:58;;;;;;;;;;;;;;;12.21;43.67;101555.31;4387746;32;20072;-71
2022/02/12 00:40:25;;;;;;;;;;;;;;;12.34;43.19;101550.66;4387027;32;19969;-71
2022/02/12 00:42:50;;;;;;;;;;;;;;;12.24;43.72;101541.13;4384459;32;19967;-71
2022/02/12 00:45:16;;;;;;;;;;;;;;;11.91;44.51;101545.75;4384627;32;20463;-71
2022/02/12 00:47:42;;;;;;;;;;;;;;;12.17;44.13;101521.53;4389798;32;20006;-71
2022/02/12 00:50:09;;;;;;;;;;;;;;;12.07;44.13;101522.50;4387775;32;20031;-71
2022/02/12 00:52:34;;;;;;;;;;;;;;;12.02;44.51;101518.16;4385791;32;20408;-71
2022/02/12 00:55:00;;;;;;;;;;;;;;;11.89;44.73;101511.53;4382296;32;19982;-71
2022/02/12 00:57:26;;;;;;;;;;;;;;;12.17;44.28;101503.78;4383623;32;19962;-71
2022/02/12 00:59:52;;;;;;;;;;;;;;;12.06;44.47;101501.19;4385998;32;20088;-71
2022/02/12 01:02:17;;;;;;;;;;;;;;;12.16;44.19;101507.84;4385036;32;20021;-71
2022/02/12 01:04:56;;;;;;;;;;;;;;;12.02;44.62;101506.06;4371500;32;20012;-71
2022/02/12 01:07:49;;;;;;;;;;;;;;;12.17;44.32;101492.50;4379019;32;19993;-71
2022/02/12 01:13:35;;;;;;;;;;;;;;;12.20;44.31;101469.06;4384000;32;19969;-71
2022/02/12 01:16:01;;;;;;;;;;;;;;;12.08;44.66;101462.84;4383551;32;20319;-71
2022/02/12 01:18:26;;;;;;;;;;;;;;;12.04;44.87;101452.84;4391732;32;20725;-71
2022/02/12 01:20:52;;;;;;;;;;;;;;;11.72;45.81;101449.81;4388522;32;19969;-71
2022/02/12 01:23:17;;;;;;;;;;;;;;;11.80;45.82;101445.62;4388826;32;20623;-71
2022/02/12 01:25:44;;;;;;;;;;;;;;;11.76;45.91;101440.03;4388613;32;19954;-71
2022/02/12 01:28:09;;;;;;;;;;;;;;;11.59;46.27;101438.31;4388411;32;19958;-71
2022/02/12 01:30:35;;;;;;;;;;;;;;;11.94;45.33;101439.75;4390401;32;19986;-71
2022/02/12 01:33:00;;;;;;;;;;;;;;;11.65;45.97;101447.09;4389835;32;20765;-71
2022/02/12 01:35:26;;;;;;;;;;;;;;;11.71;45.95;101436.91;4391042;32;20456;-71
2022/02/12 01:37:52;;;;;;;;;;;;;;;11.70;46.08;101427.69;4387562;32;19995;-71
2022/02/12 01:40:21;;;;;;;;;;;;;;;11.76;46.10;101430.81;4389203;32;19963;-71
2022/02/12 01:42:47;;;;;;;;;;;;;;;11.68;46.12;101424.47;4387216;32;20411;-71
2022/02/12 01:45:13;;;;;;;;;;;;;;;11.38;46.88;101409.66;4387024;32;20434;-71
2022/02/12 01:47:38;;;;;;;;;;;;;;;11.56;46.68;101412.97;4388282;32;20005;-71
2022/02/12 01:50:04;;;;;;;;;;;;;;;11.36;47.16;101415.75;4386322;32;19954;-71
2022/02/12 01:52:31;;;;;;;;;;;;;;;11.67;46.71;101397.53;4391077;32;20009;-71
2022/02/12 01:54:56;;;;;;;;;;;;;;;11.68;46.59;101409.59;4389066;32;19966;-71
2022/02/12 01:57:22;;;;;;;;;;;;;;;11.50;47.06;101397.78;4389914;32;20324;-71
2022/02/12 01:59:47;;;;;;;;;;;;;;;11.52;46.57;101398.16;4388392;32;19964;-70
2022/02/12 02:02:13;;;;;;;;;;;;;;;11.71;46.58;101386.16;4389700;32;20341;-70
2022/02/12 02:04:39;;;;;;;;;;;;;;;11.68;46.49;101385.00;4390749;32;20434;-70
2022/02/12 02:07:24;;;;;;;;;;;;;;;11.52;46.91;101389.72;4391148;32;19972;-70
2022/02/12 02:09:50;;;;;;;;;;;;;;;11.24;47.46;101384.56;4386632;32;20002;-70
2022/02/12 02:12:15;;;;;;;;;;;;;;;11.64;46.42;101372.22;4387795;32;20024;-71
2022/02/12 02:14:42;;;;;;;;;;;;;;;11.48;46.97;101366.44;4389777;32;20196;-71
2022/02/12 02:17:08;;;;;;;;;;;;;;;11.22;47.86;101365.25;4393474;32;20046;-71
2022/02/12 02:19:33;;;;;;;;;;;;;;;11.16;47.97;101352.88;4389362;32;20011;-71
2022/02/12 02:22:00;;;;;;;;;;;;;;;11.22;48.01;101353.19;4393270;32;19966;-71
2022/02/12 02:24:26;;;;;;;;;;;;;;;11.12;48.12;101340.09;4390917;32;21416;-71
2022/02/12 02:27:02;;;;;;;;;;;;;;;11.43;47.28;101325.44;4392654;32;19993;-71
2022/02/12 02:29:27;;;;;;;;;;;;;;;11.56;46.87;101340.50;4388850;32;20336;-71
2022/02/12 02:31:53;;;;;;;;;;;;;;;11.33;47.73;101325.63;4393588;32;19968;-71
2022/02/12 02:34:19;;;;;;;;;;;;;;;11.18;48.11;101319.47;4377075;32;19958;-71
2022/02/12 02:36:44;;;;;;;;;;;;;;;11.23;47.71;101332.25;4389867;32;20343;-70
2022/02/12 02:39:09;;;;;;;;;;;;;;;11.38;47.62;101323.12;4393684;32;19962;-71
2022/02/12 02:41:35;;;;;;;;;;;;;;;11.35;47.73;101323.97;4393178;32;20422;-71
2022/02/12 02:44:01;;;;;;;;;;;;;;;11.17;48.20;101325.53;4391111;32;20004;-71
2022/02/12 02:46:27;;;;;;;;;;;;;;;11.24;48.07;101316.94;4388524;32;19976;-71
2022/02/12 02:48:53;;;;;;;;;;;;;;;11.17;48.22;101311.44;4393268;32;20293;-71
2022/02/12 02:56:49;;;;;;;;;;;;;;;11.09;48.48;101307.94;4391455;32;20019;-71
2022/02/12 02:59:14;;;;;;;;;;;;;;;11.17;48.38;101302.97;4388820;32;19954;-71
2022/02/12 03:01:40;;;;;;;;;;;;;;;11.05;48.52;101300.78;4387124;32;19993;-71
2022/02/12 03:04:05;;;;;;;;;;;;;;;11.31;48.20;101300.69;4389800;32;19980;-71
2022/02/12 03:06:31;;;;;;;;;;;;;;;11.31;48.37;101275.34;4391589;32;20000;-71
2022/02/12 03:08:57;;;;;;;;;;;;;;;11.05;48.87;101273.38;4392493;32;19995;-71
2022/02/12 03:11:23;;;;;;;;;;;;;;;10.98;49.25;101253.03;4390976;32;20016;-71
2022/02/12 03:13:49;;;;;;;;;;;;;;;11.05;49.09;101250.84;4389327;32;20412;-71
2022/02/12 03:16:15;;;;;;;;;;;;;;;11.29;48.60;101258.06;4386189;32;19990;-71
2022/02/12 03:18:42;;;;;;;;;;;;;;;10.98;49.19;101233.31;4391747;32;19953;-71
2022/02/12 03:21:08;;;;;;;;;;;;;;;11.29;48.67;101246.78;4391581;32;19989;-71
2022/02/12 03:23:33;;;;;;;;;;;;;;;11.19;49.04;101230.09;4392122;32;20012;-71
2022/02/12 03:25:59;;;;;;;;;;;;;;;10.86;49.74;101237.50;4391092;32;19971;-71
2022/02/12 03:28:25;;;;;;;;;;;;;;;10.97;49.54;101226.87;4386732;32;20013;-71
2022/02/12 03:30:51;;;;;;;;;;;;;;;11.10;49.11;101218.59;4388458;32;20005;-71
2022/02/12 03:33:17;;;;;;;;;;;;;;;11.09;49.18;101220.63;4382849;32;19964;-71
2022/02/12 03:35:44;;;;;;;;;;;;;;;10.97;49.70;101203.53;4386853;32;19962;-71
2022/02/12 03:38:11;;;;;;;;;;;;;;;11.09;49.26;101206.53;4385521;32;19969;-71
2022/02/12 03:40:37;;;;;;;;;;;;;;;10.87;49.73;101199.72;4392206;32;20002;-71
2022/02/12 03:43:03;;;;;;;;;;;;;;;11.13;49.23;101195.19;4389404;32;20360;-71
2022/02/12 03:45:29;;;;;;;;;;;;;;;11.13;49.05;101183.91;4387559;32;20649;-71
2022/02/12 03:47:55;;;;;;;;;;;;;;;10.80;50.20;101166.03;4389738;32;19996;-71
2022/02/12 03:50:20;;;;;;;;;;;;;;;10.84;50.22;101160.34;4391502;32;20009;-71
2022/02/12 03:52:46;;;;;;;;;;;;;;;10.61;50.67;101149.91;4391164;32;19985;-71
2022/02/12 03:55:11;;;;;;;;;;;;;;;10.62;50.69;101150.69;4391300;32;19969;-71
2022/02/12 03:57:37;;;;;;;;;;;;;;;10.78;50.35;101148.78;4391678;32;20010;-71
2022/02/12 04:00:06;;;;;;;;;;;;;;;10.91;50.01;101144.12;4389923;32;20000;-71
2022/02/12 04:02:32;;;;;;;;;;;;;;;10.76;50.40;101144.81;4389363;32;20040;-71
2022/02/12 04:04:58;;;;;;;;;;;;;;;10.66;50.71;101137.34;4385832;32;19981;-71
2022/02/12 04:07:23;;;;;;;;;;;;;;;10.63;50.66;101152.28;4392837;32;19973;-71
2022/02/12 04:09:49;;;;;;;;;;;;;;;10.84;50.19;101123.75;4374601;32;20007;-71
2022/02/12 04:12:15;;;;;;;;;;;;;;;10.89;50.09;101140.16;4389938;32;19949;-71
2022/02/12 04:14:41;;;;;;;;;;;;;;;10.97;49.79;101136.75;4382638;32;20328;-71
2022/02/12 04:17:08;;;;;;;;;;;;;;;10.77;50.27;101129.53;4389394;32;20437;-71
2022/02/12 04:19:34;;;;;;;;;;;;;;;10.87;50.10;101125.69;4389613;32;19950;-71
2022/02/12 04:21:59;;;;;;;;;;;;;;;10.98;49.82;101120.66;4390652;32;20576;-71
2022/02/12 04:24:25;;;;;;;;;;;;;;;10.90;50.28;101116.38;4390798;32;20364;-71
2022/02/12 04:26:51;;;;;;;;;;;;;;;11.38;49.14;101108.13;4389064;32;20490;-71
2022/02/12 04:29:16;;;;;;;;;;;;;;;10.83;50.36;101127.78;4389356;32;20424;-71
2022/02/12 04:31:42;;;;;;;;;;;;;;;11.14;49.65;101112.28;4386721;32;19986;-71
2022/02/12 04:34:08;;;;;;;;;;;;;;;11.16;49.51;101096.53;4386947;32;20009;-71
2022/02/12 04:36:33;;;;;;;;;;;;;;;10.86;50.18;101096.75;4389960;32;20308;-71
2022/02/12 04:38:59;;;;;;;;;;;;;;;11.08;49.85;101106.34;4390422;32;20009;-71
2022/02/12 04:41:24;;;;;;;;;;;;;;;11.14;49.72;101098.22;4386923;32;20009;-71
2022/02/12 04:43:50;;;;;;;;;;;;;;;11.11;49.44;101082.94;4389342;32;20001;-71
2022/02/12 04:46:16;;;;;;;;;;;;;;;11.31;48.92;101080.94;4391013;32;19972;-70
2022/02/12 04:48:41;;;;;;;;;;;;;;;11.25;49.31;101084.69;4390955;32;19982;-70
2022/02/12 04:51:07;;;;;;;;;;;;;;;11.34;48.94;101094.16;4394453;32;20392;-71
2022/02/12 04:53:32;;;;;;;;;;;;;;;11.43;48.98;101093.53;4393233;32;19992;-71
2022/02/12 04:55:57;;;;;;;;;;;;;;;11.18;49.41;101098.91;4396339;32;20343;-71
2022/02/12 04:58:23;;;;;;;;;;;;;;;11.34;48.79;101079.25;4393448;32;20332;-71
2022/02/12 05:00:50;;;;;;;;;;;;;;;11.50;48.55;101073.66;4394277;32;20024;-71
2022/02/12 05:03:16;;;;;;;;;;;;;;;11.43;48.70;101077.44;4393923;32;19954;-71
2022/02/12 05:05:41;;;;;;;;;;;;;;;11.75;48.11;101068.25;4393973;32;19958;-71
2022/02/12 05:08:08;;;;;;;;;;;;;;;12.18;47.08;101062.41;4392924;32;19973;-70
2022/02/12 05:10:34;;;;;;;;;;;;;;;11.89;47.40;101062.31;4393809;32;20343;-70
2022/02/12 05:13:00;;;;;;;;;;;;;;;11.99;47.44;101069.69;4389622;32;19965;-70
2022/02/12 05:15:25;;;;;;;;;;;;;;;12.00;47.40;101055.16;4390550;32;19997;-70
2022/02/12 05:17:53;;;;;;;;;;;;;;;11.65;47.79;101044.75;4391041;32;20005;-70
2022/02/12 05:20:19;;;;;;;;;;;;;;;12.11;47.14;101060.53;4394569;32;20005;-70
2022/02/12 05:22:44;;;;;;;;;;;;;;;12.09;47.10;101054.56;4373597;32;20009;-70
2022/02/12 05:25:10;;;;;;;;;;;;;;;12.16;46.59;101056.38;4389361;32;20005;-70
2022/02/12 05:27:37;;;;;;;;;;;;;;;12.03;46.91;101056.31;4391255;32;19973;-70
2022/02/12 05:30:02;;;;;;;;;;;;;;;12.15;46.87;101044.31;4392154;32;20340;-70
2022/02/12 05:32:28;;;;;;;;;;;;;;;12.24;46.71;101032.41;4388939;32;19986;-70
2022/02/12 05:34:56;;;;;;;;;;;;;;;12.24;46.43;101030.37;4392884;32;20009;-70
2022/02/12 05:37:21;;;;;;;;;;;;;;;12.54;45.89;101020.69;4393629;32;19946;-70
2022/02/12 05:39:47;;;;;;;;;;;;;;;12.37;46.20;101005.03;4390625;32;19973;-70
2022/02/12 05:42:13;;;;;;;;;;;;;;;12.27;46.13;101000.50;4379816;32;20400;-70
2022/02/12 05:44:39;;;;;;;;;;;;;;;12.31;46.00;100998.34;4391748;32;20375;-70
2022/02/12 05:47:04;;;;;;;;;;;;;;;12.18;46.47;100994.69;4389259;32;19958;-70
2022/02/12 05:49:30;;;;;;;;;;;;;;;12.29;46.33;100976.22;4390341;32;20024;-70
2022/02/12 05:51:56;;;;;;;;;;;;;;;12.07;46.90;100975.22;4389189;32;20002;-70
2022/02/12 05:54:22;;;;;;;;;;;;;;;11.92;46.87;100980.44;4389613;32;19967;-70
2022/02/12 05:56:47;;;;;;;;;;;;;;;11.88;47.26;100959.19;4389139;32;19995;-70
2022/02/12 05:59:13;;;;;;;;;;;;;;;11.99;46.75;100939.94;4392298;32;20339;-70
2022/02/12 06:01:40;;;;;;;;;;;;;;;11.62;47.64;100943.34;4392697;32;20012;-70
2022/02/12 06:04:05;;;;;;;;;;;;;;;11.72;47.58;100937.44;4391631;32;19959;-70
2022/02/12 06:06:31;;;;;;;;;;;;;;;11.69;47.52;100937.53;4386838;32;19962;-70
2022/02/12 06:08:57;;;;;;;;;;;;;;;11.89;46.90;100932.56;4392000;32;20018;-70
2022/02/12 06:11:22;;;;;;;;;;;;;;;11.85;47.13;100929.06;4392263;32;20035;-70
2022/02/12 06:13:52;;;;;;;;;;;;;;;11.89;46.85;100924.13;4392653;32;20316;-70
2022/02/12 06:16:18;;;;;;;;;;;;;;;11.72;47.16;100917.69;4392701;32;19998;-70
2022/02/12 06:18:44;;;;;;;;;;;;;;;11.69;47.29;100909.34;4391381;32;19994;-70
2022/02/12 06:21:10;;;;;;;;;;;;;;;12.12;46.35;100926.69;4392737;32;19958;-70
2022/02/12 06:23:36;;;;;;;;;;;;;;;12.13;46.39;100911.37;4392946;32;20028;-70
2022/02/12 06:26:02;;;;;;;;;;;;;;;12.08;46.08;100921.16;4390175;32;20051;-70
2022/02/12 06:28:27;;;;;;;;;;;;;;;12.13;46.09;100899.28;4393617;32;20399;-70
2022/02/12 06:30:53;;;;;;;;;;;;;;;12.24;46.01;100894.94;4392320;32;19972;-70
2022/02/12 06:33:19;;;;;;;;;;;;;;;12.26;45.91;100888.84;4391004;32;20008;-70
2022/02/12 06:35:44;;;;;;;;;;;;;;;11.98;46.50;100877.13;4389439;32;19993;-70
2022/02/12 06:38:10;;;;;;;;;;;;;;;12.50;45.56;100881.69;4389815;32;19981;-70
2022/02/12 06:40:36;;;;;;;;;;;;;;;12.27;45.70;100882.75;4389985;32;20432;-71
2022/02/12 06:43:03;;;;;;;;;;;;;;;11.60;47.28;100889.41;4389042;32;19965;-70
2022/02/12 06:45:29;;;;;;;;;;;;;;;11.83;46.86;100884.37;4391732;32;19981;-70
2022/02/12 06:47:55;;;;;;;;;;;;;;;11.90;46.64;100881.37;4390786;32;19950;-70
2022/02/12 06:50:21;;;;;;;;;;;;;;;11.61;47.35;100885.34;4387541;32;20179;-70
2022/02/12 06:52:46;;;;;;;;;;;;;;;11.74;46.94;100892.69;4387860;32;19991;-70
2022/02/12 06:55:12;;;;;;;;;;;;;;;11.83;46.44;100884.37;4386985;32;19982;-70
2022/02/12 06:57:38;;;;;;;;;;;;;;;11.92;46.48;100895.03;4377729;32;19974;-70
2022/02/12 07:00:04;;;;;;;;;;;;;;;11.94;46.14;100895.38;4390622;32;19950;-70
2022/02/12 07:02:29;;;;;;;;;;;;;;;11.86;46.35;100896.81;4391138;32;20273;-70
2022/02/12 07:04:57;;;;;;;;;;;;;;;11.84;46.13;100883.16;4392284;32;20398;-70
2022/02/12 07:07:23;;;;;;;;;;;;;;;12.03;45.75;100887.09;4388889;32;20069;-70
2022/02/12 07:09:49;;;;;;;;;;;;;;;11.89;46.02;100890.28;4390735;32;21253;-70
2022/02/12 07:12:14;;;;;;;;;;;;;;;11.96;45.92;100879.59;4391007;32;20279;-70
2022/02/12 07:14:40;;;;;;;;;;;;;;;12.09;45.41;100876.84;4393586;32;19957;-70
2022/02/12 07:17:05;;;;;;;;;;;;;;;12.15;45.12;100913.75;4389309;32;19953;-70
2022/02/12 07:19:32;;;;;;;;;;;;;;;12.10;44.92;100872.78;4391685;32;19985;-70
2022/02/12 07:21:58;;;;;;;;;;;;;;;11.92;45.66;100876.09;4380927;32;20005;-70
2022/02/12 07:24:23;;;;;;;;;;;;;;;11.67;45.98;100887.25;4388282;32;19962;-70
2022/02/12 07:26:49;;;;;;;;;;;;;;;11.86;45.63;100877.06;4391705;32;20013;-70
2022/02/12 07:29:14;;;;;;;;;;;;;;;11.71;45.67;100861.75;4392091;32;20001;-70
2022/02/12 07:31:40;;;;;;;;;;;;;;;12.13;45.07;100869.84;4392342;32;20001;-70
2022/02/12 07:34:07;;;;;;;;;;;;;;;11.66;45.62;100873.59;4390117;32;19976;-70
2022/02/12 07:36:33;;;;;;;;;;;;;;;12.02;45.07;100849.59;4389609;32;20196;-70
2022/02/12 07:38:59;;;;;;;;;;;;;;;12.16;44.91;100858.91;4393605;32;19998;-70
2022/02/12 07:41:26;;;;;;;;;;;;;;;11.93;45.34;100851.47;4394069;32;20296;-70
2022/02/12 07:43:52;;;;;;;;;;;;;;;11.98;45.14;100863.03;4392477;32;20002;-70
2022/02/12 07:46:18;;;;;;;;;;;;;;;11.92;45.21;100859.16;4391098;32;19968;-70
2022/02/12 07:48:43;;;;;;;;;;;;;;;12.06;45.00;100860.81;4390732;32;19981;-70
2022/02/12 07:51:09;;;;;;;;;;;;;;;12.10;44.91;100864.31;4387422;32;19973;-70
2022/02/12 07:53:35;;;;;;;;;;;;;;;12.51;44.19;100843.75;4388458;32;20651;-71
2022/02/12 07:56:01;;;;;;;;;;;;;;;12.39;44.25;100853.78;4388562;32;19958;-70
2022/02/12 07:58:26;;;;;;;;;;;;;;;12.59;43.71;100847.94;4387787;32;20452;-70
2022/02/12 08:00:52;;;;;;;;;;;;;;;12.67;43.64;100844.44;4373484;32;20375;-70
2022/02/12 08:03:18;;;;;;;;;;;;;;;12.39;44.08;100836.06;4388423;32;19978;-71
2022/02/12 08:05:43;;;;;;;;;;;;;;;12.16;44.41;100865.34;4389361;32;20284;-71
2022/02/12 08:08:09;;;;;;;;;;;;;;;12.74;43.48;100846.25;4390801;32;20006;-71
2022/02/12 08:13:20;;;;;;;;;;;;;;;12.72;43.27;100862.84;4382651;32;19990;-71
2022/02/12 08:15:45;;;;;;;;;;;;;;;12.33;44.15;100854.78;4386237;32;20006;-71
2022/02/12 08:18:11;;;;;;;;;;;;;;;12.39;43.94;100858.66;4391085;32;20010;-71
2022/02/12 08:20:36;;;;;;;;;;;;;;;12.66;43.52;100844.88;4390090;32;20031;-71
2022/02/12 08:23:02;;;;;;;;;;;;;;;12.50;43.74;100828.06;4390627;32;20407;-71
2022/02/12 08:25:27;;;;;;;;;;;;;;;12.48;43.69;100831.31;4378500;32;19962;-71
2022/02/12 08:27:53;;;;;;;;;;;;;;;12.45;43.61;100826.56;4395046;32;20305;-71
2022/02/12 08:30:18;;;;;;;;;;;;;;;12.30;43.91;100813.34;4392372;32;20005;-71
2022/02/12 08:32:44;;;;;;;;;;;;;;;12.46;43.46;100802.78;4392489;32;19981;-71
2022/02/12 08:35:12;;;;;;;;;;;;;;;12.25;44.07;100799.78;4393218;32;19992;-70
2022/02/12 08:37:39;;;;;;;;;;;;;;;12.24;44.03;100790.53;4388294;32;19938;-71
2022/02/12 08:40:06;;;;;;;;;;;;;;;12.33;43.72;100801.94;4376119;32;19981;-68
2022/02/12 08:42:32;;;;;;;;;;;;;;;12.49;43.24;100815.97;4391102;32;20304;-71
2022/02/12 08:44:57;;;;;;;;;;;;;;;12.55;43.03;100807.75;4393873;32;19958;-71
2022/02/12 08:47:23;;;;;;;;;;;;;;;12.71;42.79;100788.66;4392852;32;19958;-71
2022/02/12 08:49:48;;;;;;;;;;;;;;;12.87;42.53;100801.88;4392752;32;19997;-71
2022/02/12 08:52:14;;;;;;;;;;;;;;;12.61;42.97;100801.06;4389923;32;19962;-71
2022/02/12 08:54:40;;;;;;;;;;;;;;;12.98;42.31;100788.97;4391653;32;19993;-71
2022/02/12 08:57:05;;;;;;;;;;;;;;;12.90;42.63;100787.62;4394309;32;19962;-71
2022/02/12 08:59:31;;;;;;;;;;;;;;;13.00;42.18;100799.84;4393239;32;20001;-71
2022/02/12 09:01:57;;;;;;;;;;;;;;;12.89;42.40;100800.16;4395144;32;20020;-71
2022/02/12 09:04:23;;;;;;;;;;;;;;;12.81;42.52;100793.19;4391069;32;20040;-71
2022/02/12 09:06:49;;;;;;;;;;;;;;;12.79;42.52;100775.13;4393531;32;20032;-71
2022/02/12 09:09:15;;;;;;;;;;;;;;;12.84;42.51;100761.22;4390046;32;19976;-71
2022/02/12 09:11:41;;;;;;;;;;;;;;;12.88;42.25;100758.25;4380697;32;20361;-71
2022/02/12 09:14:08;;;;;;;;;;;;;;;12.91;42.36;100752.50;4387236;32;19968;-70
2022/02/12 09:16:34;;;;;;;;;;;;;;;12.98;42.27;100745.81;4389957;32;20332;-70
2022/02/12 09:18:59;;;;;;;;;;;;;;;12.80;42.62;100751.28;4389705;32;20087;-70
2022/02/12 09:21:25;;;;;;;;;;;;;;;13.36;41.34;100741.69;4389006;32;19973;-71
2022/02/12 09:23:51;;;;;;;;;;;;;;;13.47;41.02;100718.69;4377685;32;20013;-70
2022/02/12 09:26:19;;;;;;;;;;;;;;;13.59;40.94;100715.00;4391825;32;20391;-70
2022/02/12 09:28:45;;;;;;;;;;;;;;;12.95;42.14;100712.84;4393301;32;20301;-70
2022/02/12 09:31:10;;;;;;;;;;;;;;;13.33;41.63;100733.31;4390157;32;20013;-71
2022/02/12 09:33:36;;;;;;;;;;;;;;;13.00;42.07;100723.56;4393193;32;19962;-70
2022/02/12 09:36:03;;;;;;;;;;;;;;;13.27;41.67;100698.41;4395766;32;20386;-70
2022/02/12 09:38:29;;;;;;;;;;;;;;;12.98;42.28;100704.22;4388683;32;20407;-70
2022/02/12 09:40:55;;;;;;;;;;;;;;;13.61;41.13;100696.34;4387265;32;19993;-71
2022/02/12 09:43:22;;;;;;;;;;;;;;;13.58;41.12;100690.81;4388550;32;19981;-71
2022/02/12 09:45:57;;;;;;;;;;;;;;;13.64;41.16;100660.69;4390950;32;20005;-71
2022/02/12 09:48:23;;;;;;;;;;;;;;;13.50;41.34;100697.97;4391275;32;20001;-71
2022/02/12 09:50:50;;;;;;;;;;;;;;;13.38;41.56;100729.91;4390827;32;20407;-71
2022/02/12 09:53:16;;;;;;;;;;;;;;;13.39;41.50;100658.78;4391771;32;20297;-71
2022/02/12 09:55:42;;;;;;;;;;;;;;;13.30;41.82;100670.03;4391303;32;19969;-71
2022/02/12 09:58:10;;;;;;;;;;;;;;;13.48;41.44;100700.47;4390918;32;20040;-71
2022/02/12 10:00:36;;;;;;;;;;;;;;;13.59;41.67;100715.78;4392523;32;20336;-70
2022/02/12 10:03:01;;;;;;;;;;;;;;;13.54;41.98;100667.53;4390196;32;20012;-71
2022/02/12 10:05:28;;;;;;;;;;;;;;;13.88;41.25;100673.09;4393513;32;19966;-70
2022/02/12 10:08:12;;;;;;;;;;;;;;;14.02;41.05;100673.31;4391114;32;20203;-71
2022/02/12 10:10:38;;;;;;;;;;;;;;;14.02;40.86;100667.66;4393516;32;20008;-71
2022/02/12 10:13:19;;;;;;;;;;;;;;;14.20;40.44;100683.16;4390127;32;19959;-71
2022/02/12 10:15:47;;;;;;;;;;;;;;;13.87;40.87;100675.13;4391306;32;20414;-70
2022/02/12 10:18:12;;;;;;;;;;;;;;;13.99;40.76;100676.28;4386208;32;19958;-70
2022/02/12 10:20:39;;;;;;;;;;;;;;;14.13;40.71;100669.28;4385665;32;20251;-70
2022/02/12 10:25:42;;;;;;;;;;;;;;;14.96;39.50;100687.69;3948442;32;15821331;-71
2022/02/12 10:28:08;;;;;;;;;;;;;;;14.96;39.50;100687.69;4429436;32;20316;-71
2022/02/12 10:30:34;;;;;;;;;;;;;;;14.47;39.85;100669.12;4429513;32;20334;-71
2022/02/12 10:33:01;;;;;;;;;;;;;;;14.18;40.31;100666.66;4428713;32;20009;-70
2022/02/12 10:35:28;;;;;;;;;;;;;;;14.11;40.22;100658.44;4427839;32;20023;-70
2022/02/12 10:37:59;;;;;;;;;;;;;;;13.94;40.94;100642.94;4427821;32;20596;-71
2022/02/12 10:40:25;;;;;;;;;;;;;;;13.91;40.79;100687.13;4425370;32;20342;-70
2022/02/12 10:42:51;;;;;;;;;;;;;;;13.79;41.20;100670.22;4423917;32;20007;-70
2022/02/12 10:45:18;;;;;;;;;;;;;;;13.91;41.12;100666.50;4429088;32;20269;-70
2022/02/12 10:47:44;;;;;;;;;;;;;;;13.98;40.92;100667.03;4426462;32;19994;-70
2022/02/12 10:50:10;;;;;;;;;;;;;;;14.57;39.85;100639.59;4425297;32;20423;-70
2022/02/12 10:55:32;;;;;;;;;;;;;;;15.21;38.78;100632.72;3952264;32;15723537;-69
2022/02/12 10:57:59;;;;;;;;;;;;;;;15.21;38.78;100632.72;4429399;32;19996;-70
2022/02/12 11:00:26;;;;;;;;;;;;;;;15.22;38.75;100632.25;4438130;32;19973;-70
2022/02/12 11:02:53;;;;;;;;;;;;;;;15.38;38.39;100620.66;4430133;32;20317;-71
2022/02/12 11:05:20;;;;;;;;;;;;;;;14.65;39.62;100627.50;4428195;32;20523;-70
2022/02/12 11:07:45;;;;;;;;;;;;;;;15.22;38.67;100620.16;4433106;32;19953;-70
2022/02/12 11:10:11;;;;;;;;;;;;;;;14.92;38.95;100646.59;4431236;32;19975;-70
2022/02/12 11:12:37;;;;;;;;;;;;;;;14.59;39.73;100618.06;4430442;32;19965;-70
2022/02/12 11:15:02;;;;;;;;;;;;;;;14.87;39.09;100602.66;4433400;32;19992;-70
2022/02/12 11:17:31;;;;;;;;;;;;;;;14.99;39.15;100615.09;4429425;32;19988;-70
2022/02/12 11:19:57;;;;;;;;;;;;;;;15.04;39.05;100600.31;4419677;32;19984;-70
2022/02/12 11:22:22;;;;;;;;;;;;;;;15.44;38.37;100581.09;4432267;32;20027;-71
2022/02/12 11:24:48;;;;;;;;;;;;;;;15.01;38.93;100596.37;4427247;32;19997;-70
2022/02/12 11:29:52;;;;;;;;;;;;;;;15.19;39.09;100633.19;3950808;32;15753328;-71
2022/02/12 11:32:20;;;;;;;;;;;;;;;15.19;39.09;100633.19;4431882;32;19957;-71
2022/02/12 11:37:40;;;;;;;;;;;;;;;14.94;39.76;100590.25;3953492;32;15722555;-70
2022/02/12 11:40:22;;;;;;;;;;;;;;;14.94;39.76;100590.25;4430659;32;20030;-71
2022/02/12 11:48:16;;;;;;;;;;;;;;;15.54;38.80;100560.75;3952724;32;15722620;-71
2022/02/12 11:50:47;;;;;;;;;;;;;;;15.54;38.80;100560.75;4426502;32;19972;-71
2022/02/12 11:53:29;;;;;;;;;;;;;;;15.58;38.35;100558.50;4423773;32;20280;-71
2022/02/12 11:55:55;;;;;;;;;;;;;;;15.09;39.24;100572.13;4427360;32;19976;-71
2022/02/12 11:58:21;;;;;;;;;;;;;;;15.66;38.64;100556.13;4427981;32;20224;-71
2022/02/12 12:00:47;;;;;;;;;;;;;;;15.24;39.15;100544.69;4427990;32;20000;-71
2022/02/12 12:03:12;;;;;;;;;;;;;;;14.89;39.70;100566.16;4414176;32;20477;-71
2022/02/12 12:05:38;;;;;;;;;;;;;;;15.23;39.46;100539.50;4430741;32;20406;-71
2022/02/12 12:16:13;;;;;;;;;;;;;;;14.51;44.93;100553.69;3952252;32;15723571;-70
2022/02/12 12:18:43;;;;;;;;;;;;;;;14.51;44.93;100553.69;4432767;32;20036;-69
2022/02/12 12:21:13;;;;;;;;;;;;;;;13.90;45.83;100527.09;4429524;32;20008;-70
2022/02/12 12:23:39;;;;;;;;;;;;;;;13.97;45.80;100515.47;4429149;32;19949;-70
2022/02/12 12:26:06;;;;;;;;;;;;;;;13.52;46.58;100515.31;4425798;32;19980;-70
2022/02/12 12:31:09;;;;;;;;;;;;;;;14.03;46.34;100498.69;3953466;32;15723544;-69
2022/02/12 12:33:39;;;;;;;;;;;;;;;14.03;46.34;100498.69;4428838;32;20323;-70
2022/02/12 12:36:06;;;;;;;;;;;;;;;13.43;47.45;100483.38;4431466;32;19969;-70
2022/02/12 12:38:36;;;;;;;;;;;;;;;13.81;47.48;100464.06;4430294;32;20001;-70
2022/02/12 12:41:21;;;;;;;;;;;;;;;13.81;47.25;100459.19;4428910;32;20758;-70
2022/02/12 12:43:47;;;;;;;;;;;;;;;13.63;47.51;100447.03;4429597;32;20336;-70
2022/02/12 12:46:12;;;;;;;;;;;;;;;13.47;48.63;100445.25;4413137;32;20024;-69
2022/02/12 12:48:38;;;;;;;;;;;;;;;13.38;48.80;100436.72;4428682;32;20034;-70
2022/02/12 12:51:04;;;;;;;;;;;;;;;13.23;49.34;100444.19;4415711;32;19954;-71
2022/02/12 12:53:30;;;;;;;;;;;;;;;13.67;49.09;100445.66;4429813;32;19949;-71
2022/02/12 12:55:57;;;;;;;;;;;;;;;13.64;49.11;100440.13;4431181;32;19958;-71
2022/02/12 12:58:22;;;;;;;;;;;;;;;13.63;49.27;100427.25;4426675;32;19996;-71
2022/02/12 13:00:48;;;;;;;;;;;;;;;13.94;48.61;100428.72;4428730;32;19954;-71
2022/02/12 13:03:14;;;;;;;;;;;;;;;14.12;48.44;100422.31;4426715;32;19957;-71
2022/02/12 13:05:40;;;;;;;;;;;;;;;14.44;48.16;100426.56;4427870;32;19976;-71
2022/02/12 13:08:08;;;;;;;;;;;;;;;14.27;47.98;100433.81;4426955;32;19984;-71
2022/02/12 13:10:34;;;;;;;;;;;;;;;14.46;47.76;100416.37;4427133;32;19970;-71